Forecasts are only available for sites displaying the forecast symbol.

Scroll for more >

River gauges, storages, and weirs in the Murray–Darling Basin

Type Locationsort ascending River Water level Flow Volume Release Water temp Salinity Rainfall
Weirs Yarrawonga Weir Upstream Murray 124.8 m 17/01/2019 0:45 Not measured Not measured Not measured Not measured Not measured 0.0 mm 16/01/2019 9:00 Full data
Weirs Yarrawonga Weir Downstream Murray 1.57 m 17/01/2019 1:30 9251 ML/Day 17/01/2019 1:30 Not measured Not measured 27.0°C 17/01/2019 1:30 149.4 μS/cm 17/01/2019 1:30 Not measured Full data
River Gauge Yarrawonga Main Channel Murray 123.66 m 17/01/2019 0:45 Not measured Not measured 945.0 ML/d17/01/2019 0:45 Not measured Not measured Not measured Full data
River Gauge Wilcania Darling -0.26 m 17/01/2019 0:45 1 ML/Day 17/01/2019 0:45 Not measured Not measured 33.9°C 17/01/2019 0:45 0.0 μS/cm 17/01/2019 0:45 Not measured Full data
Weirs Wentworth Weir Murray 27.52 m 17/01/2019 0:45 Not measured Not measured 5064.8 ML/d16/01/2019 8:45 Not measured 87.0 μS/cm 16/01/2019 7:45 0.0 mm 15/01/2019 9:00 Full data
River Gauge Weir 32 Upstream Darling 1.2 m 17/01/2019 0:45 72 ML/Day 17/01/2019 0:45 Not measured Not measured 29.3°C 17/01/2019 0:45 975.0 μS/cm 17/01/2019 0:45 Not measured Full data
River Gauge Wakool Junction Murray 3.45 m 17/01/2019 0:45 9660 ML/Day 17/01/2019 0:45 Not measured Not measured 28.1°C 17/01/2019 0:45 22.2 μS/cm 17/01/2019 0:45 Not measured Full data
River Gauge Wakool Canal Wakool 0.47 m 17/01/2019 0:45 Not measured Not measured 104.0 ML/d16/01/2019 8:45 Not measured Not measured Not measured Full data
Weirs Torrumbarry Weir Upstream Murray 86.05 m 17/01/2019 0:30 Not measured 37 GL 16/01/2019 7:45 Not measured 26.9°C 16/01/2019 7:45 63.6 μS/cm 16/01/2019 21:45 0.0 mm 15/01/2019 9:00 Full data
Weirs Torrumbarry Weir Downstream Murray 2.54 m 17/01/2019 0:45 7490 ML/Day 17/01/2019 0:45 Not measured Not measured 27.6°C 17/01/2019 0:45 64.0 μS/cm 17/01/2019 0:45 Not measured Full data
River Gauge Torrumbarry Headworks Murray 85.03 m 17/01/2019 1:00 Not measured Not measured 2023.0 ML/d17/01/2019 1:00 Not measured Not measured Not measured Full data
River Gauge Tocumwal Murray 2.14 m 17/01/2019 0:45 8923 ML/Day 17/01/2019 0:45 Not measured Not measured 28.7°C 17/01/2019 0:45 54.0 μS/cm 17/01/2019 0:45 Not measured Full data
River Gauge Tauwitchere Barrage Murray 0.62 m 17/01/2019 0:45 Not measured Not measured Not measured Not measured Not measured Not measured Full data
River Gauge Tallandoon Mitta 2.64 m 17/01/2019 0:45 5019 ML/Day 17/01/2019 0:45 Not measured Not measured 14.6°C 17/01/2019 0:45 40.5 μS/cm 17/01/2019 0:45 Not measured Full data
River Gauge Swan Hill Murray 1.42 m 17/01/2019 0:45 7490 ML/Day 17/01/2019 0:45 Not measured Not measured 28.1°C 17/01/2019 0:45 77.9 μS/cm 17/01/2019 0:45 Not measured Full data
River Gauge Stoney Crossing Murray 1.62 m 17/01/2019 1:00 959 ML/Day 17/01/2019 1:00 Not measured 674.0 ML/d16/01/2019 7:45 28.5°C 17/01/2019 1:00 109.3 μS/cm 17/01/2019 1:00 Not measured Full data
Weirs Steven's Weir Upstream Wakool 4.47 m 17/01/2019 1:00 Not measured Not measured Not measured Not measured Not measured Not measured Full data
Weirs Steven's Weir Downstream Wakool 2.41 m 17/01/2019 0:45 2656 ML/Day 17/01/2019 0:45 Not measured Not measured 28.5°C 17/01/2019 0:45 40.5 μS/cm 17/01/2019 0:45 Not measured Full data
River Gauge Rufus River Murray 21.15 m 16/01/2019 7:45 Not measured Not measured 4414.2 ML/d16/01/2019 7:45 Not measured 161.0 μS/cm 17/01/2019 0:45 Not measured Full data
River Gauge Rochester Campaspe 1.7 m 17/01/2019 0:45 73 ML/Day 17/01/2019 0:45 Not measured Not measured 25.7°C 17/01/2019 0:45 783.4 μS/cm 17/01/2019 0:45 0.0 mm 16/01/2019 9:00 Full data
River Gauge Redcliffs Murray Not measured Not measured Not measured Not measured Not measured 102.6 μS/cm 17/01/2019 0:45 Not measured Full data
River Gauge Pinegrove Murray 0.96 m 17/01/2019 1:30 114 ML/Day 17/01/2019 1:30 Not measured Not measured 28.0°C 17/01/2019 1:30 118.2 μS/cm 17/01/2019 1:30 0.0 mm 16/01/2019 9:00 Full data
River Gauge Peechelba Ovens 126.29 m 17/01/2019 0:45 337 ML/Day 17/01/2019 0:45 Not measured Not measured 30.7°C 17/01/2019 0:45 65.2 μS/cm 17/01/2019 0:45 Not measured Full data
River Gauge Murray Bridge Murray 0.6 m 17/01/2019 0:45 Not measured Not measured Not measured 23.7°C 17/01/2019 0:45 334.1 μS/cm 17/01/2019 0:45 Not measured Full data
River Gauge Mundoo Barrage Murray 0.6 m 16/01/2019 7:45 Not measured Not measured Not measured Not measured Not measured Not measured Full data
River Gauge Mulwala Canal Murray Not measured Not measured Not measured 3900.5 ML/d16/01/2019 7:45 Not measured Not measured Not measured Full data
River Gauge Morgan Downstream Murray Not measured Not measured Not measured 3010.4 ML/d17/01/2019 0:45 Not measured 195.8 μS/cm 17/01/2019 0:45 Not measured Full data
Weirs Mildura Weir downstream Murray 30.95 m 17/01/2019 0:45 Not measured Not measured Not measured 27.6°C 17/01/2019 0:45 100.0 μS/cm 17/01/2019 0:45 Not measured Full data
Storage Menindee Lakes Darling Not measured Not measured 52 GL 16/01/2019 7:45 Not measured Not measured Not measured Not measured Full data
River Gauge McCoy Bridge Goulburn 2.48 m 17/01/2019 0:45 2820 ML/Day 17/01/2019 0:45 Not measured Not measured 26.4°C 17/01/2019 0:45 52.1 μS/cm 17/01/2019 0:45 Not measured Full data
Weirs Lock 9 Upstream Murray 27.34 m 17/01/2019 0:45 Not measured Not measured Not measured 27.8°C 17/01/2019 0:45 88.7 μS/cm 17/01/2019 0:45 Not measured Full data
Weirs Lock 9 Downstream Murray 24.17 m 17/01/2019 0:45 Not measured Not measured Not measured Not measured Not measured Not measured Full data
Weirs Lock 8 Upstream Murray 24.14 m 17/01/2019 1:00 Not measured Not measured Not measured 27.1°C 17/01/2019 1:00 87.4 μS/cm 17/01/2019 1:00 Not measured Full data
Weirs Lock 7 Upstream Murray 21.98 m 17/01/2019 0:45 Not measured Not measured Not measured 28.1°C 17/01/2019 0:45 90.3 μS/cm 17/01/2019 0:45 Not measured Full data
Weirs Lock 7 Downstream Murray 20.53 m 17/01/2019 0:45 Not measured Not measured Not measured Not measured Not measured Not measured Full data
Weirs Lock 6 Upstream Murray 19.25 m 17/01/2019 0:45 Not measured Not measured Not measured 27.4°C 17/01/2019 0:45 121.0 μS/cm 17/01/2019 0:45 Not measured Full data
Weirs Lock 6 Downstream Murray 16.44 m 17/01/2019 0:45 Not measured Not measured Not measured Not measured Not measured Not measured Full data
Weirs Lock 5 Upstream Murray 16.32 m 17/01/2019 0:45 Not measured Not measured Not measured 27.1°C 17/01/2019 0:45 121.8 μS/cm 17/01/2019 0:45 Not measured Full data
Weirs Lock 5 Downstream Murray 13.39 m 17/01/2019 0:45 Not measured Not measured Not measured Not measured Not measured Not measured Full data
Weirs Lock 4 Upstream Murray 13.22 m 17/01/2019 0:45 Not measured Not measured Not measured Not measured Not measured Not measured Full data
Weirs Lock 4 Downstream Murray 10.5 m 17/01/2019 0:45 Not measured Not measured Not measured Not measured Not measured Not measured Full data
Weirs Lock 3 Upstream Murray 9.81 m 17/01/2019 0:45 Not measured Not measured Not measured Not measured Not measured Not measured Full data
Weirs Lock 3 Downstream Murray 6.31 m 17/01/2019 0:45 Not measured Not measured Not measured Not measured Not measured Not measured Full data
Weirs Lock 2 Upstream Murray 6.14 m 17/01/2019 0:45 Not measured Not measured Not measured 26.4°C 17/01/2019 0:45 180.4 μS/cm 17/01/2019 0:45 Not measured Full data
Weirs Lock 2 Downstream Murray 3.32 m 17/01/2019 0:45 Not measured Not measured Not measured Not measured Not measured Not measured Full data
Weirs Lock 1 Upstream Murray 3.2 m 17/01/2019 0:45 Not measured Not measured Not measured 25.0°C 17/01/2019 0:45 206.0 μS/cm 17/01/2019 0:45 Not measured Full data
Weirs Lock 1 Downstream Murray 0.65 m 17/01/2019 0:45 Not measured Not measured 5155.8 ML/d16/01/2019 7:45 Not measured Not measured Not measured Full data
Storage Lake Victoria Murray 25.15 m 17/01/2019 0:45 Not measured 464 GL 17/01/2019 0:45 Not measured 23.1°C 17/01/2019 0:45 152.4 μS/cm 17/01/2019 0:45 Not measured Full data
River Gauge Lake Alexandrina Murray 0.66 m 16/01/2019 5:45 Not measured 1555 GL 16/01/2019 5:45 Not measured Not measured 975.5 μS/cm 17/01/2019 0:45 Not measured Full data
River Gauge Lake Albert Murray 0.63 m 16/01/2019 5:45 Not measured 250 GL 16/01/2019 5:45 Not measured Not measured Not measured Not measured Full data
River Gauge Kerang Loddon 0.37 m 17/01/2019 0:45 160 ML/Day 17/01/2019 0:45 Not measured Not measured 27.6°C 17/01/2019 0:45 106.3 μS/cm 17/01/2019 0:45 Not measured Full data
River Gauge Jingellic Murray 1.89 m 17/01/2019 0:45 6023 ML/Day 17/01/2019 0:45 Not measured Not measured 22.2°C 17/01/2019 0:45 33.5 μS/cm 17/01/2019 0:45 0.0 mm 16/01/2019 9:00 Full data
Storage Hume Dam Murray 179.32 m 17/01/2019 1:30 Not measured 1052 GL 17/01/2019 1:30 14331.0 ML/d16/01/2019 8:00 Not measured Not measured 0.0 mm 16/01/2019 9:00 Full data
River Gauge Hinnomunjie Mitta 0.5 m 17/01/2019 0:45 179 ML/Day 17/01/2019 0:45 Not measured Not measured 25.2°C 17/01/2019 0:45 36.5 μS/cm 17/01/2019 0:45 0.0 mm 16/01/2019 9:00 Full data
River Gauge Gulpa Creek Offtake Murray 2.46 m 17/01/2019 0:45 324 ML/Day 17/01/2019 0:45 Not measured Not measured Not measured Not measured Not measured Full data
River Gauge Frenchman Creek Murray 27.34 m 16/01/2019 7:45 Not measured Not measured 654.0 ML/d16/01/2019 7:45 Not measured Not measured Not measured Full data
River Gauge Flow to South Australia Murray Not measured Not measured Not measured 8088.0 ML/d16/01/2019 7:45 Not measured Not measured Not measured Full data
Weirs Euston Weir Upstream Murray 47.78 m 16/01/2019 7:45 Not measured 39 GL 16/01/2019 7:45 Not measured Not measured Not measured 0.0 mm 15/01/2019 9:00 Full data
Weirs Euston Weir Downstream Murray 43.4 m 17/01/2019 0:45 7925 ML/Day 17/01/2019 0:45 Not measured Not measured 27.9°C 17/01/2019 0:45 73.1 μS/cm 17/01/2019 0:45 Not measured Full data
River Gauge Edward River Offtake Murray 2.39 m 17/01/2019 1:00 1545 ML/Day 17/01/2019 1:00 Not measured Not measured 29.1°C 17/01/2019 0:45 39.8 μS/cm 17/01/2019 0:45 Not measured Full data
River Gauge Edward Escape Wakool 1.15 m 17/01/2019 0:45 1999 ML/Day 17/01/2019 0:45 Not measured Not measured 28.2°C 17/01/2019 0:45 52.9 μS/cm 17/01/2019 0:45 Not measured Full data
River Gauge Echuca Wharf Murray 87.2 m 16/01/2019 23:45 Not measured Not measured Not measured Not measured Not measured Not measured Full data
River Gauge Doctors Point Murray 2.93 m 17/01/2019 1:30 14294 ML/Day 17/01/2019 1:30 Not measured Not measured 22.2°C 17/01/2019 1:30 49.7 μS/cm 17/01/2019 1:30 Not measured Full data
Storage Dartmouth Dam Mitta 465.57 m 17/01/2019 2:00 Not measured 2655 GL 17/01/2019 2:00 Not measured Not measured Not measured Not measured Full data
River Gauge Corowa Murray 3.13 m 17/01/2019 1:30 15083 ML/Day 17/01/2019 1:30 Not measured Not measured 25.9°C 17/01/2019 1:30 50.5 μS/cm 17/01/2019 1:30 Not measured Full data
River Gauge Colignan Murray 2.04 m 17/01/2019 0:45 7263 ML/Day 17/01/2019 0:45 Not measured Not measured 28.8°C 17/01/2019 0:45 99.7 μS/cm 17/01/2019 0:45 Not measured Full data
River Gauge Colemans Mitta 2.24 m 17/01/2019 2:00 5002 ML/Day 17/01/2019 2:00 Not measured Not measured 12.1°C 17/01/2019 0:45 45.3 μS/cm 17/01/2019 0:45 Not measured Full data
River Gauge Burtundy Darling 0.62 m 17/01/2019 1:15 8 ML/Day 17/01/2019 1:15 Not measured Not measured 29.0°C 17/01/2019 1:15 1005.7 μS/cm 17/01/2019 1:15 Not measured Full data
River Gauge Bringenbrong Bridge Murray 1.7 m 17/01/2019 1:30 4998 ML/Day 17/01/2019 1:30 Not measured Not measured Not measured Not measured Not measured Full data
River Gauge Biggara Murray 0.27 m 17/01/2019 1:30 217 ML/Day 17/01/2019 1:30 Not measured Not measured 26.8°C 17/01/2019 1:30 35.9 μS/cm 17/01/2019 1:30 0.0 mm 16/01/2019 9:00 Full data
River Gauge Barmah Choke Murray 2.43 m 17/01/2019 0:45 6986 ML/Day 17/01/2019 0:45 Not measured Not measured Not measured Not measured Not measured Full data
River Gauge Bandiana Kiewa 1.5 m 17/01/2019 0:45 1177 ML/Day 17/01/2019 0:45 Not measured Not measured 27.3°C 17/01/2019 0:45 17.3 μS/cm 17/01/2019 0:45 Not measured Full data
River Gauge Balranald Murrumbidgee 0.67 m 17/01/2019 0:45 351 ML/Day 17/01/2019 0:45 Not measured Not measured 26.5°C 17/01/2019 0:45 113.8 μS/cm 17/01/2019 0:45 Not measured Full data
River Gauge Albury (Union Bridge) Murray 1.96 m 17/01/2019 1:30 Not measured Not measured Not measured 22.9°C 17/01/2019 1:30 43.8 μS/cm 17/01/2019 1:30 Not measured Full data